TimeEST,TemperatureF,Dew PointF,Humidity,Sea Level PressureIn,VisibilityMPH,Wind Direction,Wind SpeedMPH,Gust SpeedMPH,PrecipitationIn,Events,Conditions,WindDirDegrees,DateUTC
12:34 AM,16.0,12.0,84,30.12,0.2,Variable,6.9,-,0.06,Fog-Snow,Snow,0,2013-12-15 05:34:00
12:52 AM,16.0,12.0,84,30.11,0.5,Variable,4.6,-,0.08,Fog-Snow,Snow,0,2013-12-15 05:52:00
1:14 AM,17.1,12.9,84,30.06,0.5,NNE,8.1,-,0.02,Fog-Snow,Snow,20,2013-12-15 06:14:00
1:28 AM,17.1,12.9,84,30.04,0.5,North,4.6,-,0.03,Fog-Snow,Light Snow,10,2013-12-15 06:28:00
1:52 AM,17.1,12.9,84,30.04,0.5,Variable,6.9,-,0.06,Fog-Snow,Light Snow,0,2013-12-15 06:52:00
2:27 AM,17.1,14.0,88,29.98,0.2,North,4.6,-,0.04,Fog-Snow,Snow,10,2013-12-15 07:27:00
2:37 AM,17.1,14.0,88,29.96,0.2,Variable,5.8,-,0.06,Fog-Snow,Heavy Snow,0,2013-12-15 07:37:00
2:52 AM,17.1,14.0,88,29.96,0.2,NNE,4.6,-,0.10,Fog-Snow,Snow,30,2013-12-15 07:52:00
3:12 AM,18.0,14.0,84,29.90,0.5,North,6.9,-,0.03,Fog-Snow,Light Snow,10,2013-12-15 08:12:00
3:52 AM,19.0,15.1,85,29.86,0.5,North,8.1,-,0.08,Fog-Snow,Snow,10,2013-12-15 08:52:00
4:07 AM,19.0,15.1,85,29.82,0.5,North,9.2,-,0.02,Fog-Snow,Snow,360,2013-12-15 09:07:00
4:52 AM,19.0,15.1,85,29.74,0.5,North,11.5,-,0.09,Fog-Snow,Snow,360,2013-12-15 09:52:00
5:14 AM,19.9,16.0,85,29.69,0.5,North,8.1,16.1,0.06,Fog-Snow,Light Snow,10,2013-12-15 10:14:00
5:52 AM,19.9,16.0,85,29.68,0.5,NNW,9.2,-,0.11,Fog-Snow,Snow,330,2013-12-15 10:52:00
6:16 AM,19.9,17.1,89,29.66,0.5,NNW,9.2,21.9,0.01,Fog-Snow,Snow,340,2013-12-15 11:16:00
6:52 AM,21.0,17.1,85,29.60,0.8,NNE,8.1,24.2,0.01,Snow,Light Snow,20,2013-12-15 11:52:00
6:55 AM,21.0,17.1,85,29.58,1.0,North,9.2,24.2,0.00,Snow,Light Snow,350,2013-12-15 11:55:00
7:07 AM,21.0,17.1,85,29.57,1.2,North,10.4,17.3,0.00,Snow,Light Snow,350,2013-12-15 12:07:00
7:25 AM,21.0,17.1,85,29.55,1.8,NNW,9.2,-,0.00,Snow,Light Snow,340,2013-12-15 12:25:00
7:35 AM,21.0,16.0,81,29.54,2.0,North,10.4,-,0.00,Snow,Light Snow,350,2013-12-15 12:35:00
7:45 AM,21.0,16.0,81,29.53,1.2,NNW,13.8,21.9,0.00,Snow,Light Snow,330,2013-12-15 12:45:00
7:52 AM,21.0,16.0,81,29.56,1.0,NW,11.5,20.7,0.00,Snow,Light Snow,310,2013-12-15 12:52:00
8:22 AM,19.9,16.0,85,29.53,1.2,NNW,9.2,-,0.00,Snow,Light Snow,330,2013-12-15 13:22:00
8:38 AM,19.9,16.0,85,29.52,2.5,NNW,9.2,-,0.00,Snow,Light Snow,340,2013-12-15 13:38:00
8:45 AM,19.9,16.0,85,29.51,2.0,NNW,8.1,-,0.00,Snow,Light Snow,340,2013-12-15 13:45:00
8:52 AM,21.0,17.1,85,29.52,2.5,NNW,12.7,-,0.00,Rain,Light Freezing Rain,340,2013-12-15 13:52:00
9:08 AM,21.0,17.1,85,29.49,3.0,NW,9.2,-,0.00,Rain,Light Freezing Rain,320,2013-12-15 14:08:00
9:52 AM,21.9,17.1,82,29.54,3.0,NNW,11.5,-,0.00,Rain,Light Freezing Rain,330,2013-12-15 14:52:00
10:43 AM,24.1,19.0,81,29.47,2.5,NNW,10.4,-,0.00,,Haze,340,2013-12-15 15:43:00
10:52 AM,24.1,19.0,81,29.48,2.0,North,10.4,-,0.00,,Haze,350,2013-12-15 15:52:00
10:59 AM,24.1,19.0,81,29.46,10.0,North,11.5,-,N/A,,Overcast,350,2013-12-15 15:59:00
11:52 AM,25.0,19.0,78,29.49,10.0,NNW,9.2,-,N/A,,Overcast,340,2013-12-15 16:52:00
12:08 PM,25.0,19.0,78,29.47,10.0,WNW,12.7,-,N/A,,Overcast,290,2013-12-15 17:08:00
12:52 PM,25.0,19.9,81,29.49,4.0,WNW,8.1,-,0.00,Snow,Light Snow,300,2013-12-15 17:52:00
1:23 PM,28.0,21.0,75,29.48,10.0,Variable,5.8,-,0.00,,Overcast,0,2013-12-15 18:23:00
1:52 PM,28.9,21.0,72,29.51,10.0,WNW,10.4,-,0.00,,Overcast,300,2013-12-15 18:52:00
2:52 PM,28.9,21.0,72,29.54,10.0,WNW,6.9,-,N/A,,Overcast,290,2013-12-15 19:52:00
3:02 PM,28.9,21.0,72,29.52,10.0,WNW,4.6,-,N/A,,Overcast,290,2013-12-15 20:02:00
3:52 PM,28.0,19.9,72,29.58,10.0,WNW,9.2,-,N/A,,Overcast,300,2013-12-15 20:52:00
4:15 PM,27.0,19.9,75,29.58,10.0,WNW,5.8,-,N/A,,Mostly Cloudy,290,2013-12-15 21:15:00
4:36 PM,28.0,19.9,72,29.59,10.0,Calm,Calm,-,N/A,,Mostly Cloudy,0,2013-12-15 21:36:00
4:52 PM,28.0,21.9,78,29.61,1.8,Calm,Calm,-,0.00,,Overcast,0,2013-12-15 21:52:00
4:58 PM,28.0,21.9,78,29.59,0.8,Calm,Calm,-,0.01,Snow,Light Snow,0,2013-12-15 21:58:00
5:01 PM,28.0,23.0,81,29.59,1.2,Calm,Calm,-,0.01,Snow,Light Snow,0,2013-12-15 22:01:00
5:07 PM,28.0,23.0,81,29.60,5.0,Calm,Calm,-,0.01,,Haze,0,2013-12-15 22:07:00
5:16 PM,27.0,21.9,81,29.60,1.8,Variable,3.5,-,0.01,,Haze,0,2013-12-15 22:16:00
5:23 PM,26.1,21.0,81,29.61,2.5,Calm,Calm,-,0.01,,Haze,0,2013-12-15 22:23:00
5:30 PM,27.0,21.0,78,29.61,10.0,NW,4.6,-,0.01,,Partly Cloudy,320,2013-12-15 22:30:00
5:52 PM,27.0,21.0,78,29.64,10.0,WNW,3.5,-,0.01,,Clear,300,2013-12-15 22:52:00
6:52 PM,23.0,18.0,81,29.67,10.0,WSW,3.5,-,N/A,,Partly Cloudy,240,2013-12-15 23:52:00
7:52 PM,27.0,17.1,66,29.70,10.0,WSW,8.1,-,N/A,,Clear,250,2013-12-16 00:52:00
8:52 PM,26.1,15.1,63,29.71,10.0,North,-9999.0,-,N/A,,Clear,0,2013-12-16 01:52:00
9:52 PM,25.0,15.1,66,29.74,10.0,SW,4.6,-,N/A,,Clear,220,2013-12-16 02:52:00
10:52 PM,24.1,14.0,65,29.74,10.0,SW,4.6,-,N/A,,Clear,230,2013-12-16 03:52:00
11:52 PM,25.0,16.0,69,29.75,10.0,South,5.8,-,N/A,,Overcast,180,2013-12-16 04:52:00